Time;durP1;ratioP1;P1;durP2;ratioP2;P2;SDS_P1;SDS_P2;PMS_P1;PMS_P2;Temp;Humidity;BMP_temperature;BMP_pressure;BME280_temperature;BME280_humidity;BME280_pressure;Samples;Min_cycle;Max_cycle;Signal;HPM_P1;HPM_P2
2021/11/29 00:00:54;;;;;;;50.03;16.73;;;8.80;96.80;;;;;;5034935;28;20104;-61
2021/11/29 00:03:20;;;;;;;33.60;16.20;;;8.70;96.50;;;;;;5034918;28;20426;-61
2021/11/29 00:05:46;;;;;;;37.47;16.77;;;8.80;96.40;;;;;;5035134;28;20021;-61
2021/11/29 00:08:12;;;;;;;32.55;15.00;;;8.70;96.20;;;;;;5034508;28;20160;-61
2021/11/29 00:10:38;;;;;;;41.75;15.38;;;8.70;96.30;;;;;;5034630;28;20072;-61
2021/11/29 00:13:04;;;;;;;34.22;15.52;;;8.70;96.50;;;;;;5034574;28;20034;-61
2021/11/29 00:15:30;;;;;;;31.90;16.15;;;8.70;96.60;;;;;;5034813;28;20040;-61
2021/11/29 00:17:56;;;;;;;89.30;24.90;;;8.80;96.70;;;;;;5034562;28;20022;-61
2021/11/29 00:20:22;;;;;;;61.13;20.63;;;8.80;96.50;;;;;;5033775;28;20028;-61
2021/11/29 00:22:49;;;;;;;37.67;16.95;;;8.80;96.30;;;;;;5034904;28;20029;-61
2021/11/29 00:25:15;;;;;;;51.60;20.58;;;8.80;96.40;;;;;;5054444;28;20017;-61
2021/11/29 00:27:41;;;;;;;63.95;17.13;;;8.70;96.40;;;;;;5050178;28;20465;-61
2021/11/29 00:30:09;;;;;;;60.83;21.77;;;8.80;96.50;;;;;;5034154;28;20109;-61
2021/11/29 00:32:36;;;;;;;34.15;18.38;;;8.80;96.40;;;;;;5034238;28;20124;-61
2021/11/29 00:35:03;;;;;;;63.78;23.15;;;8.80;96.40;;;;;;5034571;28;20457;-61
2021/11/29 00:37:29;;;;;;;68.95;22.90;;;8.80;96.20;;;;;;5052496;28;20457;-61
2021/11/29 00:39:55;;;;;;;97.63;25.85;;;8.80;96.00;;;;;;5052966;28;20040;-61
2021/11/29 00:42:21;;;;;;;53.97;21.88;;;8.70;95.80;;;;;;5054058;28;20029;-61
2021/11/29 00:44:46;;;;;;;56.28;20.67;;;8.70;96.00;;;;;;5054359;28;20024;-61
2021/11/29 00:47:12;;;;;;;48.47;17.60;;;8.70;96.30;;;;;;5054261;28;20437;-61
2021/11/29 00:49:38;;;;;;;31.85;16.75;;;8.60;96.20;;;;;;5054072;28;20104;-61
2021/11/29 00:52:04;;;;;;;39.10;17.70;;;8.60;96.50;;;;;;5053314;28;20115;-61
2021/11/29 00:54:30;;;;;;;33.10;18.15;;;8.70;96.70;;;;;;5044584;28;20473;-61
2021/11/29 00:56:55;;;;;;;57.95;20.80;;;8.70;96.70;;;;;;5046798;28;20112;-61
2021/11/29 00:59:21;;;;;;;43.90;17.85;;;8.70;96.70;;;;;;5052774;28;20033;-61
2021/11/29 01:01:47;;;;;;;46.03;18.30;;;8.70;96.60;;;;;;5053727;28;20024;-61
2021/11/29 01:04:13;;;;;;;49.55;18.55;;;8.70;96.70;;;;;;5053503;28;20028;-61
2021/11/29 01:06:38;;;;;;;36.15;14.98;;;8.80;96.70;;;;;;5053861;28;20151;-61
2021/11/29 01:09:05;;;;;;;34.17;15.73;;;8.80;96.90;;;;;;5052528;28;20021;-61
2021/11/29 01:11:31;;;;;;;36.65;15.73;;;8.80;97.00;;;;;;5034788;28;20440;-61
2021/11/29 01:13:58;;;;;;;44.00;15.80;;;8.90;97.00;;;;;;5053530;28;20424;-61
2021/11/29 01:16:24;;;;;;;28.13;12.98;;;8.90;97.10;;;;;;5053629;28;20116;-61
2021/11/29 01:18:50;;;;;;;22.95;13.02;;;8.90;97.10;;;;;;5053685;28;20439;-61
2021/11/29 01:21:17;;;;;;;39.88;15.35;;;9.00;97.10;;;;;;5053683;28;20112;-61
2021/11/29 01:23:44;;;;;;;40.92;16.48;;;9.00;97.10;;;;;;5053498;28;20048;-61
2021/11/29 01:26:10;;;;;;;27.98;15.18;;;9.10;97.00;;;;;;5052420;28;20036;-61
2021/11/29 01:28:37;;;;;;;52.08;17.08;;;9.10;96.80;;;;;;5039799;28;20033;-61
2021/11/29 01:31:03;;;;;;;35.13;15.85;;;9.10;96.50;;;;;;5034939;28;20033;-61
2021/11/29 01:33:29;;;;;;;28.48;14.73;;;9.10;96.50;;;;;;5037434;28;20049;-60
2021/11/29 01:35:55;;;;;;;26.08;14.95;;;9.10;96.60;;;;;;5065543;28;20025;-61
2021/11/29 01:38:20;;;;;;;21.73;14.02;;;9.10;96.70;;;;;;5057405;28;20102;-61
2021/11/29 01:40:46;;;;;;;20.02;13.95;;;9.20;96.80;;;;;;5057569;28;20599;-61
2021/11/29 01:43:14;;;;;;;20.85;14.38;;;9.20;97.10;;;;;;5057200;28;20039;-61
2021/11/29 01:46:06;;;;;;;20.08;14.10;;;9.30;97.20;;;;;;5043226;28;20714;-61
2021/11/29 01:48:33;;;;;;;20.50;13.15;;;9.30;96.90;;;;;;5037733;28;20036;-61
2021/11/29 01:50:59;;;;;;;19.92;13.48;;;9.40;97.30;;;;;;5057170;28;20029;-61
2021/11/29 01:53:28;;;;;;;21.33;13.52;;;9.50;97.40;;;;;;5057241;28;20385;-61
2021/11/29 01:55:58;;;;;;;18.65;13.00;;;9.50;97.20;;;;;;5056235;28;20446;-61
2021/11/29 01:58:26;;;;;;;19.50;12.55;;;9.60;97.30;;;;;;5049268;28;20040;-61
2021/11/29 02:00:54;;;;;;;17.10;12.38;;;9.70;97.30;;;;;;5049652;28;20369;-61
2021/11/29 02:03:23;;;;;;;20.90;15.00;;;9.70;97.40;;;;;;5056802;28;20017;-61
2021/11/29 02:05:50;;;;;;;22.80;17.50;;;9.80;97.40;;;;;;5056672;28;20057;-61
2021/11/29 02:08:16;;;;;;;23.38;17.23;;;9.80;97.10;;;;;;5056910;28;20028;-61
2021/11/29 02:10:42;;;;;;;20.45;13.85;;;9.90;97.10;;;;;;5056936;28;20108;-61
2021/11/29 02:13:08;;;;;;;18.42;12.85;;;9.90;97.00;;;;;;5055929;28;20079;-61
2021/11/29 02:15:34;;;;;;;18.70;12.10;;;9.90;97.00;;;;;;5055591;28;20057;-61
2021/11/29 02:18:00;;;;;;;18.25;12.63;;;9.90;96.90;;;;;;5046926;28;20064;-61
2021/11/29 02:20:33;;;;;;;16.92;12.30;;;10.00;96.70;;;;;;5036101;28;20415;-60
2021/11/29 02:23:00;;;;;;;17.25;11.85;;;10.00;96.60;;;;;;5037035;28;20052;-61
2021/11/29 02:25:26;;;;;;;19.10;11.77;;;10.00;96.60;;;;;;5036492;28;20052;-61
2021/11/29 02:27:53;;;;;;;17.95;11.63;;;10.00;96.60;;;;;;5036784;28;20056;-61
2021/11/29 02:30:22;;;;;;;18.92;12.23;;;10.00;96.60;;;;;;5036687;28;20029;-61
2021/11/29 02:32:48;;;;;;;16.02;11.75;;;10.00;96.40;;;;;;5055934;28;20033;-61
2021/11/29 02:35:14;;;;;;;16.67;11.23;;;10.00;96.30;;;;;;5039005;28;20540;-61
2021/11/29 02:37:40;;;;;;;16.83;11.52;;;9.90;96.00;;;;;;5056734;28;20060;-61
2021/11/29 02:40:06;;;;;;;16.75;11.38;;;9.90;95.80;;;;;;5056113;28;20025;-61
2021/11/29 02:42:32;;;;;;;15.63;10.52;;;9.90;95.80;;;;;;5054803;28;20033;-61
2021/11/29 02:44:58;;;;;;;14.13;10.45;;;9.80;95.70;;;;;;5054901;28;20062;-61
2021/11/29 02:47:24;;;;;;;14.98;10.35;;;9.80;95.70;;;;;;5055187;28;20021;-60
2021/11/29 02:49:50;;;;;;;16.08;10.82;;;9.70;95.60;;;;;;5055801;28;20052;-60
2021/11/29 02:52:18;;;;;;;15.38;9.93;;;9.60;95.70;;;;;;5054011;28;20056;-61
2021/11/29 02:54:45;;;;;;;13.35;9.48;;;9.50;95.70;;;;;;5053550;28;20032;-61
2021/11/29 02:57:17;;;;;;;10.75;8.40;;;9.50;95.80;;;;;;5036080;28;20029;-61
2021/11/29 02:59:43;;;;;;;15.25;10.13;;;9.50;95.90;;;;;;5048079;28;20040;-61
2021/11/29 03:02:14;;;;;;;14.27;10.30;;;9.50;95.90;;;;;;5042110;28;20025;-61
2021/11/29 03:04:41;;;;;;;13.25;9.48;;;9.40;95.90;;;;;;5055857;28;20365;-61
2021/11/29 03:07:07;;;;;;;13.35;9.38;;;9.40;96.20;;;;;;5046564;28;20520;-61
2021/11/29 03:09:34;;;;;;;11.77;9.00;;;9.40;96.20;;;;;;5035435;28;20101;-61
2021/11/29 03:12:00;;;;;;;12.73;8.88;;;9.40;96.20;;;;;;5036173;28;20404;-61
2021/11/29 03:14:26;;;;;;;13.43;9.35;;;9.50;96.30;;;;;;5035943;28;20022;-60
2021/11/29 03:16:54;;;;;;;11.00;7.50;;;9.50;96.20;;;;;;5036146;28;20108;-60
2021/11/29 03:19:20;;;;;;;10.07;7.95;;;9.50;95.90;;;;;;5045360;28;20025;-61
2021/11/29 03:21:47;;;;;;;12.30;8.27;;;9.50;95.90;;;;;;5055718;28;20044;-61
2021/11/29 03:24:12;;;;;;;12.73;8.90;;;9.50;95.90;;;;;;5055753;28;20029;-61
2021/11/29 03:26:39;;;;;;;9.95;7.85;;;9.50;95.70;;;;;;5055050;28;20075;-61
2021/11/29 03:29:10;;;;;;;9.15;7.25;;;9.50;95.60;;;;;;5055620;28;20615;-61
2021/11/29 03:31:37;;;;;;;12.00;8.27;;;9.40;95.60;;;;;;5055493;28;20096;-60
2021/11/29 03:34:05;;;;;;;9.60;7.13;;;9.40;95.60;;;;;;5055764;28;20041;-61
2021/11/29 03:36:32;;;;;;;12.68;8.07;;;9.40;95.60;;;;;;5055312;28;20025;-60
2021/11/29 03:38:59;;;;;;;11.10;8.00;;;9.40;95.70;;;;;;5055364;28;20032;-61
2021/11/29 03:41:26;;;;;;;9.50;7.38;;;9.40;95.90;;;;;;5049047;28;20046;-61
2021/11/29 03:43:52;;;;;;;12.18;8.80;;;9.40;96.00;;;;;;5035189;28;20082;-61
2021/11/29 03:46:18;;;;;;;9.85;7.82;;;9.40;96.30;;;;;;5035096;28;20026;-61
2021/11/29 03:48:44;;;;;;;10.55;7.35;;;9.50;96.00;;;;;;5035109;28;20464;-61
2021/11/29 03:51:10;;;;;;;8.85;7.00;;;9.50;95.90;;;;;;5035059;28;20357;-61
2021/11/29 03:53:36;;;;;;;8.98;7.13;;;9.50;95.80;;;;;;5035074;28;20097;-61
2021/11/29 03:56:02;;;;;;;10.73;6.85;;;9.50;95.60;;;;;;5046625;28;20112;-61
2021/11/29 03:58:28;;;;;;;8.52;6.38;;;9.40;95.30;;;;;;5053904;28;20028;-61
2021/11/29 04:00:54;;;;;;;8.95;6.20;;;9.40;95.20;;;;;;5055153;28;20031;-60
2021/11/29 04:03:20;;;;;;;7.93;6.13;;;9.40;95.20;;;;;;5054705;28;20051;-61
2021/11/29 04:05:46;;;;;;;8.38;6.13;;;9.30;95.10;;;;;;5054821;28;20025;-60
2021/11/29 04:08:12;;;;;;;10.70;6.60;;;9.20;95.10;;;;;;5054725;28;20025;-61
2021/11/29 04:10:38;;;;;;;8.80;6.10;;;9.10;95.00;;;;;;5054771;28;20074;-61
2021/11/29 04:13:03;;;;;;;9.75;7.22;;;9.10;95.30;;;;;;5054553;28;20033;-61
2021/11/29 04:15:30;;;;;;;9.30;6.70;;;9.10;95.40;;;;;;5034583;28;20440;-61
2021/11/29 04:17:56;;;;;;;9.85;7.05;;;9.00;95.40;;;;;;5034736;28;20041;-60
2021/11/29 04:20:22;;;;;;;11.38;7.00;;;9.00;95.60;;;;;;5034675;28;20051;-61
2021/11/29 04:22:48;;;;;;;11.18;7.68;;;9.00;95.90;;;;;;5034488;28;20086;-61
2021/11/29 04:25:18;;;;;;;11.93;7.35;;;9.10;96.00;;;;;;5041878;28;20090;-61
2021/11/29 04:27:46;;;;;;;10.50;7.47;;;9.10;95.70;;;;;;5054477;28;20120;-61
2021/11/29 04:30:17;;;;;;;10.35;7.32;;;9.10;95.60;;;;;;5053872;28;20028;-61
2021/11/29 04:32:43;;;;;;;11.05;8.18;;;9.10;95.60;;;;;;5054146;28;20040;-61
2021/11/29 04:35:10;;;;;;;10.80;7.80;;;9.10;95.20;;;;;;5054376;28;20127;-61
2021/11/29 04:37:36;;;;;;;9.27;7.43;;;9.20;95.20;;;;;;5054392;28;20033;-61
2021/11/29 04:40:03;;;;;;;11.75;8.25;;;9.10;95.10;;;;;;5053960;28;20031;-61
2021/11/29 04:42:29;;;;;;;11.43;8.48;;;9.10;95.20;;;;;;5054279;28;20031;-60
2021/11/29 04:44:55;;;;;;;13.38;9.13;;;9.10;95.50;;;;;;5051536;28;20017;-61
2021/11/29 04:47:20;;;;;;;12.15;9.25;;;9.10;95.90;;;;;;5034152;28;20373;-59
2021/11/29 04:49:46;;;;;;;13.75;8.95;;;9.10;96.10;;;;;;5034019;28;20021;-61
2021/11/29 04:52:12;;;;;;;11.68;9.85;;;9.20;96.40;;;;;;5034180;28;20029;-61
2021/11/29 04:54:37;;;;;;;15.25;10.93;;;9.30;96.70;;;;;;5034123;28;20033;-61
2021/11/29 04:57:04;;;;;;;14.95;11.00;;;9.40;96.70;;;;;;5053446;28;20036;-60
2021/11/29 04:59:30;;;;;;;12.13;10.27;;;9.40;96.50;;;;;;5053922;28;20087;-61
2021/11/29 05:01:56;;;;;;;15.70;11.75;;;9.50;96.50;;;;;;5035374;28;20037;-61
2021/11/29 05:04:22;;;;;;;15.18;11.45;;;9.60;96.40;;;;;;5034193;28;20080;-61
2021/11/29 05:06:48;;;;;;;13.60;10.35;;;9.60;96.00;;;;;;5048584;28;20039;-61
2021/11/29 05:09:14;;;;;;;15.98;11.85;;;9.60;95.80;;;;;;5042137;28;20463;-60
2021/11/29 05:11:40;;;;;;;15.50;11.20;;;9.60;95.70;;;;;;5052413;28;20033;-61
2021/11/29 05:14:06;;;;;;;14.55;12.50;;;9.60;95.60;;;;;;5048445;28;20018;-61
2021/11/29 05:16:33;;;;;;;18.58;12.98;;;9.60;95.80;;;;;;5033741;28;20087;-61
2021/11/29 05:18:59;;;;;;;17.50;13.27;;;9.60;95.90;;;;;;5044642;28;20029;-61
2021/11/29 05:21:25;;;;;;;15.43;11.98;;;9.70;96.10;;;;;;5053822;28;20027;-61
2021/11/29 05:23:51;;;;;;;14.80;11.68;;;9.70;96.00;;;;;;5053635;28;20052;-61
2021/11/29 05:26:21;;;;;;;15.38;12.40;;;9.80;95.90;;;;;;5040254;28;20475;-61
2021/11/29 05:28:48;;;;;;;15.75;12.82;;;9.80;95.70;;;;;;5053879;28;20357;-61
2021/11/29 05:31:14;;;;;;;17.55;14.10;;;9.70;95.80;;;;;;5051702;28;20617;-61
2021/11/29 05:33:40;;;;;;;19.55;13.05;;;9.80;96.30;;;;;;5041768;28;20026;-60
2021/11/29 05:36:05;;;;;;;19.48;13.02;;;9.90;96.60;;;;;;5040712;28;20108;-61
2021/11/29 05:38:32;;;;;;;19.00;13.30;;;9.90;96.40;;;;;;5053653;28;20500;-61
2021/11/29 05:40:57;;;;;;;18.80;14.13;;;9.90;96.20;;;;;;5053538;28;20091;-61
2021/11/29 05:43:23;;;;;;;17.13;13.20;;;10.00;96.60;;;;;;5053301;28;20025;-61
2021/11/29 05:45:49;;;;;;;16.63;13.38;;;10.00;96.30;;;;;;5053561;28;20025;-61
2021/11/29 05:48:15;;;;;;;15.88;12.43;;;10.10;96.20;;;;;;5053573;28;20017;-61
2021/11/29 05:50:41;;;;;;;16.55;11.85;;;10.10;96.20;;;;;;5052383;28;20025;-60
2021/11/29 05:53:07;;;;;;;14.13;11.30;;;10.10;95.70;;;;;;5053386;28;20479;-61
2021/11/29 05:55:32;;;;;;;14.77;11.55;;;10.10;95.20;;;;;;5040933;28;20469;-61
2021/11/29 05:57:58;;;;;;;15.52;10.90;;;10.10;95.10;;;;;;5048806;28;20021;-61
2021/11/29 06:00:25;;;;;;;14.82;11.93;;;10.00;95.10;;;;;;5033452;28;20030;-61
2021/11/29 06:02:50;;;;;;;18.33;13.07;;;10.00;95.40;;;;;;5039207;28;20579;-61
2021/11/29 06:05:17;;;;;;;17.13;11.95;;;10.00;95.80;;;;;;5053264;28;20104;-61
2021/11/29 06:07:43;;;;;;;17.17;13.10;;;10.10;95.80;;;;;;5044617;28;20192;-60
2021/11/29 06:10:10;;;;;;;18.73;13.02;;;10.10;95.90;;;;;;5033407;28;20030;-61
2021/11/29 06:12:37;;;;;;;17.17;13.32;;;10.10;95.80;;;;;;5033616;28;20060;-61
2021/11/29 06:15:03;;;;;;;17.02;12.15;;;10.20;95.60;;;;;;5034678;28;20473;-61
2021/11/29 06:17:29;;;;;;;16.10;11.98;;;10.20;95.70;;;;;;5047334;28;20025;-61
2021/11/29 06:19:55;;;;;;;18.73;12.70;;;10.20;95.90;;;;;;5043099;28;20032;-61
2021/11/29 06:22:20;;;;;;;19.05;13.13;;;10.20;96.10;;;;;;5047715;28;20037;-61
2021/11/29 06:24:46;;;;;;;15.57;11.88;;;10.20;96.00;;;;;;5043689;28;20021;-61
2021/11/29 06:27:12;;;;;;;17.30;12.98;;;10.30;96.40;;;;;;5040143;28;20075;-61
2021/11/29 06:29:38;;;;;;;18.85;13.75;;;10.40;97.20;;;;;;5043606;28;20035;-61
2021/11/29 06:32:04;;;;;;;19.90;14.27;;;10.50;98.00;;;;;;5035537;28;20481;-61
2021/11/29 06:34:30;;;;;;;17.58;13.45;;;10.60;98.60;;;;;;5044068;28;20020;-61
2021/11/29 06:36:58;;;;;;;19.98;13.93;;;10.80;98.80;;;;;;5040044;28;20024;-61
2021/11/29 06:39:23;;;;;;;20.73;14.30;;;10.90;98.80;;;;;;5049232;28;20109;-61
2021/11/29 06:41:49;;;;;;;23.35;14.25;;;11.10;98.90;;;;;;5045300;28;20131;-61
2021/11/29 06:44:15;;;;;;;19.20;13.55;;;11.20;98.70;;;;;;5041658;28;20037;-61
2021/11/29 06:46:41;;;;;;;18.40;13.98;;;11.40;98.60;;;;;;5041382;28;20021;-61
2021/11/29 06:49:07;;;;;;;20.05;14.18;;;11.50;98.50;;;;;;5036879;28;20566;-62
2021/11/29 06:51:34;;;;;;;15.98;11.50;;;11.60;98.40;;;;;;5038883;28;20017;-61
2021/11/29 06:54:00;;;;;;;19.67;13.25;;;11.70;98.20;;;;;;5041301;28;20481;-61
2021/11/29 06:56:26;;;;;;;17.58;13.35;;;11.80;98.10;;;;;;5039810;28;20112;-61
2021/11/29 06:58:52;;;;;;;17.80;13.55;;;11.90;97.90;;;;;;5040985;28;20635;-60
2021/11/29 07:01:18;;;;;;;18.13;13.82;;;11.90;97.80;;;;;;5038117;28;20044;-61
2021/11/29 07:03:45;;;;;;;17.15;13.55;;;12.00;97.60;;;;;;5036219;28;20033;-61
2021/11/29 07:06:11;;;;;;;21.20;13.93;;;12.10;97.60;;;;;;5036912;28;20028;-62
2021/11/29 07:08:37;;;;;;;18.95;14.07;;;12.10;97.40;;;;;;5041503;28;20025;-61
2021/11/29 07:11:03;;;;;;;19.40;13.95;;;12.20;97.30;;;;;;5036646;28;20044;-61
2021/11/29 07:13:29;;;;;;;20.67;14.43;;;12.20;97.20;;;;;;5039353;28;20056;-62
2021/11/29 07:15:55;;;;;;;18.88;13.52;;;12.30;97.10;;;;;;5035215;28;20083;-62
2021/11/29 07:18:22;;;;;;;23.00;14.90;;;12.30;97.00;;;;;;5037567;28;20083;-62
2021/11/29 07:20:48;;;;;;;17.77;14.25;;;12.40;97.00;;;;;;5029699;28;20029;-62
2021/11/29 07:23:14;;;;;;;21.25;15.18;;;12.40;97.00;;;;;;5030369;28;20488;-61
2021/11/29 07:25:40;;;;;;;26.15;16.38;;;12.50;96.80;;;;;;5026767;28;20021;-61
2021/11/29 07:28:05;;;;;;;19.88;14.95;;;12.50;96.70;;;;;;5032929;28;20041;-61
2021/11/29 07:30:31;;;;;;;19.42;15.10;;;12.50;96.60;;;;;;5038531;28;20761;-62
2021/11/29 07:32:58;;;;;;;20.80;15.43;;;12.50;96.60;;;;;;5034639;28;20076;-62
2021/11/29 07:35:26;;;;;;;21.08;15.68;;;12.60;96.60;;;;;;5030688;28;20044;-62
2021/11/29 07:37:52;;;;;;;20.45;15.35;;;12.60;96.50;;;;;;5025489;28;20029;-60
2021/11/29 07:40:19;;;;;;;19.33;13.90;;;12.70;96.50;;;;;;5029814;28;21021;-62
2021/11/29 07:42:45;;;;;;;21.20;15.50;;;12.70;96.30;;;;;;5031003;28;20103;-63
2021/11/29 07:45:14;;;;;;;20.55;15.68;;;12.80;96.20;;;;;;5029369;28;20745;-63
2021/11/29 07:47:43;;;;;;;20.88;15.77;;;12.70;96.10;;;;;;5031615;28;20510;-63
2021/11/29 07:50:14;;;;;;;20.45;15.68;;;12.80;96.20;;;;;;5029338;28;20051;-64
2021/11/29 07:52:42;;;;;;;26.65;15.18;;;12.80;96.10;;;;;;5031941;28;20029;-64
2021/11/29 07:55:11;;;;;;;22.10;15.93;;;12.90;96.00;;;;;;5017103;28;20063;-62
2021/11/29 07:57:37;;;;;;;22.38;15.43;;;12.90;95.90;;;;;;5014388;28;20041;-62
2021/11/29 08:00:07;;;;;;;19.17;15.13;;;13.00;95.80;;;;;;5021280;28;20064;-63
2021/11/29 08:02:33;;;;;;;20.52;14.98;;;13.00;95.60;;;;;;5014930;28;20036;-62
2021/11/29 08:04:59;;;;;;;20.83;15.68;;;13.10;95.50;;;;;;5027352;28;20456;-62
2021/11/29 08:07:25;;;;;;;19.45;15.23;;;13.10;95.30;;;;;;5028859;28;20029;-60
2021/11/29 08:09:50;;;;;;;24.88;16.17;;;13.10;95.20;;;;;;5029964;28;20055;-64
2021/11/29 08:12:16;;;;;;;21.35;16.15;;;13.20;95.10;;;;;;5027009;28;21008;-64
2021/11/29 08:14:42;;;;;;;23.75;16.77;;;13.10;94.50;;;;;;5025013;28;20033;-63
2021/11/29 08:17:08;;;;;;;18.35;14.77;;;13.10;94.40;;;;;;5028609;28;20033;-62
2021/11/29 08:19:34;;;;;;;19.98;13.65;;;13.10;94.40;;;;;;5026724;28;20413;-62
2021/11/29 08:22:00;;;;;;;20.33;14.55;;;13.00;94.40;;;;;;5019001;28;20051;-62
2021/11/29 08:24:25;;;;;;;20.38;14.30;;;13.00;94.40;;;;;;5025413;28;20044;-61
2021/11/29 08:26:51;;;;;;;21.10;14.23;;;13.00;94.10;;;;;;5018636;28;20034;-60
2021/11/29 08:29:17;;;;;;;22.25;14.07;;;13.00;94.40;;;;;;5016562;28;20028;-62
2021/11/29 08:31:43;;;;;;;17.65;13.77;;;12.90;94.00;;;;;;5026409;28;20060;-62
2021/11/29 08:34:10;;;;;;;18.98;13.35;;;12.80;94.20;;;;;;5024674;28;20068;-62
2021/11/29 08:36:36;;;;;;;18.60;13.05;;;12.80;94.30;;;;;;5031951;28;20453;-61
2021/11/29 08:39:03;;;;;;;16.80;12.57;;;12.70;94.30;;;;;;5026751;28;20039;-62
2021/11/29 08:41:30;;;;;;;18.63;13.65;;;12.70;94.40;;;;;;5029640;28;20068;-62
2021/11/29 08:43:56;;;;;;;16.38;11.98;;;12.70;94.40;;;;;;5026594;28;20025;-64
2021/11/29 08:46:23;;;;;;;17.15;12.85;;;12.70;94.40;;;;;;5023874;28;20029;-62
2021/11/29 08:48:49;;;;;;;17.73;13.60;;;12.70;94.30;;;;;;5024894;28;20033;-62
2021/11/29 08:51:16;;;;;;;16.98;12.57;;;12.70;94.40;;;;;;5018513;28;20029;-62
2021/11/29 08:53:43;;;;;;;16.15;12.77;;;12.70;94.50;;;;;;5024008;28;20044;-62
2021/11/29 08:56:09;;;;;;;15.80;11.70;;;12.70;94.60;;;;;;5028117;28;20065;-63
2021/11/29 08:58:35;;;;;;;16.95;12.02;;;12.70;94.80;;;;;;5021875;28;20128;-62
2021/11/29 09:01:01;;;;;;;16.90;12.02;;;12.70;94.90;;;;;;5018761;28;20063;-64
2021/11/29 09:03:27;;;;;;;15.57;11.75;;;12.70;94.80;;;;;;5025624;28;20035;-63
2021/11/29 09:05:53;;;;;;;15.35;11.00;;;12.80;94.80;;;;;;5027968;28;20032;-62
2021/11/29 09:08:19;;;;;;;19.10;12.48;;;12.80;94.90;;;;;;5028133;28;20529;-64
2021/11/29 09:10:47;;;;;;;15.32;11.27;;;12.80;94.90;;;;;;5031274;28;20029;-61
2021/11/29 09:13:13;;;;;;;14.63;11.40;;;12.80;95.00;;;;;;5017837;28;20043;-62
2021/11/29 09:15:41;;;;;;;16.48;11.35;;;12.80;95.10;;;;;;5021034;28;20114;-61
2021/11/29 09:18:08;;;;;;;18.80;11.85;;;12.90;95.10;;;;;;5017894;28;20389;-61
2021/11/29 09:20:35;;;;;;;16.02;12.07;;;12.90;95.20;;;;;;5020411;28;20037;-60
2021/11/29 09:23:03;;;;;;;14.45;10.63;;;13.00;95.20;;;;;;5024812;28;20120;-60
2021/11/29 09:25:29;;;;;;;15.35;11.57;;;13.00;95.10;;;;;;5025583;28;20676;-61
2021/11/29 09:27:56;;;;;;;18.55;11.30;;;13.10;95.20;;;;;;5030900;28;20037;-61
2021/11/29 09:30:22;;;;;;;18.45;11.45;;;13.10;95.10;;;;;;5012407;28;20064;-59
2021/11/29 09:32:48;;;;;;;15.57;11.13;;;13.20;95.10;;;;;;5027827;28;20030;-60
2021/11/29 09:35:17;;;;;;;19.23;11.98;;;13.20;95.00;;;;;;5031550;28;20035;-60
2021/11/29 09:37:44;;;;;;;18.45;11.82;;;13.20;94.90;;;;;;5029813;28;20370;-61
2021/11/29 09:40:18;;;;;;;18.92;12.27;;;13.20;94.90;;;;;;5023588;28;20519;-61
2021/11/29 09:42:44;;;;;;;16.80;13.60;;;13.20;94.90;;;;;;5025833;28;20029;-60
2021/11/29 09:45:11;;;;;;;19.50;13.27;;;13.20;94.90;;;;;;5030893;28;20043;-62
2021/11/29 09:47:37;;;;;;;20.80;14.15;;;13.30;94.80;;;;;;5029875;28;20029;-63
2021/11/29 09:50:05;;;;;;;22.02;14.93;;;13.20;94.80;;;;;;5025977;28;20036;-63
2021/11/29 09:52:31;;;;;;;24.75;15.95;;;13.20;94.90;;;;;;5029858;28;20059;-61
2021/11/29 09:54:57;;;;;;;21.65;16.27;;;13.30;94.90;;;;;;5031003;28;20029;-60
2021/11/29 09:57:23;;;;;;;23.60;15.70;;;13.30;94.90;;;;;;5024350;28;20029;-60
2021/11/29 09:59:49;;;;;;;19.00;15.13;;;13.30;94.90;;;;;;5022987;28;20038;-61
2021/11/29 10:02:15;;;;;;;22.27;14.20;;;13.30;95.00;;;;;;5020102;28;20064;-60
2021/11/29 10:04:47;;;;;;;19.05;10.52;;;13.30;94.60;;;;;;5036824;28;20034;-63
2021/11/29 10:07:48;;;;;;;12.80;10.65;;;13.20;93.50;;;;;;5027992;28;20031;-63
2021/11/29 10:10:24;;;;;;;13.63;9.75;;;13.10;93.00;;;;;;4995864;28;20038;-63
2021/11/29 10:12:53;;;;;;;14.30;9.05;;;13.00;92.80;;;;;;5024632;28;20048;-62
2021/11/29 10:15:28;;;;;;;14.40;9.05;;;12.80;92.80;;;;;;5034898;28;20037;-61
2021/11/29 10:18:09;;;;;;;14.63;9.48;;;12.70;92.80;;;;;;5033314;28;20039;-62
2021/11/29 10:20:57;;;;;;;15.95;9.73;;;12.50;92.80;;;;;;5035259;28;20033;-61
2021/11/29 10:23:39;;;;;;;15.10;9.93;;;12.40;92.70;;;;;;5022431;28;20045;-63
2021/11/29 10:26:33;;;;;;;13.15;9.55;;;12.30;93.00;;;;;;5035030;28;20029;-64
2021/11/29 10:29:06;;;;;;;17.65;9.15;;;12.20;93.10;;;;;;5034538;28;20488;-63
2021/11/29 10:31:48;;;;;;;17.88;10.77;;;12.10;93.40;;;;;;5035511;28;21669;-64
2021/11/29 10:34:23;;;;;;;13.88;9.68;;;12.00;93.40;;;;;;5026751;28;20493;-65
2021/11/29 10:36:58;;;;;;;15.23;9.43;;;12.00;93.60;;;;;;5024162;28;20053;-64
2021/11/29 10:39:25;;;;;;;14.32;9.88;;;12.00;93.60;;;;;;5031562;28;20032;-62
2021/11/29 10:42:00;;;;;;;17.42;10.05;;;11.90;93.50;;;;;;5035738;28;20057;-62
2021/11/29 10:44:29;;;;;;;14.20;10.13;;;11.80;93.60;;;;;;5030901;28;20044;-62
2021/11/29 10:47:04;;;;;;;15.10;10.23;;;11.80;93.80;;;;;;5030105;28;20063;-63
2021/11/29 10:49:33;;;;;;;16.08;10.32;;;11.80;93.70;;;;;;5032359;28;20536;-62
2021/11/29 10:52:00;;;;;;;11.23;8.95;;;11.70;93.70;;;;;;5029490;28;20029;-62
2021/11/29 10:54:29;;;;;;;13.60;8.80;;;11.70;93.90;;;;;;5026066;28;20033;-62
2021/11/29 10:56:56;;;;;;;12.23;9.13;;;11.60;93.90;;;;;;5021319;28;20036;-62
2021/11/29 10:59:25;;;;;;;11.65;8.75;;;11.60;94.00;;;;;;5020054;28;20504;-63
2021/11/29 11:01:56;;;;;;;8.65;7.75;;;11.60;93.80;;;;;;5027231;28;20029;-63
2021/11/29 11:04:23;;;;;;;;;;;11.60;93.60;;;;;;5024011;28;20051;-62
2021/11/29 11:06:58;;;;;;;9.55;7.30;;;11.50;93.40;;;;;;5034780;28;19909;-62
2021/11/29 11:09:30;;;;;;;10.23;7.70;;;11.40;93.60;;;;;;5025568;28;20025;-62
2021/11/29 11:12:00;;;;;;;10.65;8.43;;;11.40;93.70;;;;;;5029754;28;20056;-62
2021/11/29 11:14:30;;;;;;;12.07;8.68;;;11.40;93.50;;;;;;5030246;28;20614;-62
2021/11/29 11:17:08;;;;;;;9.52;8.40;;;11.30;93.60;;;;;;5030921;28;20041;-62
2021/11/29 11:19:46;;;;;;;11.07;9.13;;;11.30;93.60;;;;;;5030613;28;20056;-62
2021/11/29 11:22:23;;;;;;;17.15;11.23;;;11.30;93.80;;;;;;5035616;28;20044;-62
2021/11/29 11:24:56;;;;;;;14.85;11.10;;;11.20;93.80;;;;;;5035492;28;20514;-62
2021/11/29 11:27:23;;;;;;;13.02;9.75;;;11.20;94.00;;;;;;5034723;28;20547;-62
2021/11/29 11:29:48;;;;;;;14.00;10.00;;;11.20;94.00;;;;;;5033959;28;20040;-63
2021/11/29 11:32:20;;;;;;;9.50;8.27;;;11.20;94.10;;;;;;5032114;28;20033;-61
2021/11/29 11:34:54;;;;;;;11.80;8.80;;;11.10;94.20;;;;;;5029863;28;20035;-62
2021/11/29 11:37:23;;;;;;;10.02;8.00;;;11.10;94.20;;;;;;5027517;28;20025;-61
2021/11/29 11:39:51;;;;;;;8.98;7.50;;;11.10;94.70;;;;;;5033324;28;21014;-62
2021/11/29 11:42:18;;;;;;;8.50;7.07;;;11.10;94.50;;;;;;5030823;28;20048;-61
2021/11/29 11:44:45;;;;;;;7.63;6.82;;;11.10;94.50;;;;;;5029882;28;20028;-62
2021/11/29 11:47:11;;;;;;;8.35;6.97;;;11.20;94.50;;;;;;5032266;28;20133;-62
2021/11/29 11:49:39;;;;;;;7.18;6.20;;;11.20;94.30;;;;;;5030191;28;20135;-62
2021/11/29 11:52:12;;;;;;;11.13;7.55;;;11.10;94.10;;;;;;5019888;28;20036;-62
2021/11/29 11:54:40;;;;;;;10.55;7.53;;;11.10;94.40;;;;;;5017015;28;20892;-62
2021/11/29 11:57:08;;;;;;;8.18;7.38;;;11.10;94.70;;;;;;5023733;28;20056;-64
2021/11/29 11:59:45;;;;;;;8.27;7.28;;;11.20;94.90;;;;;;5024673;28;20025;-63
2021/11/29 12:02:16;;;;;;;9.77;7.82;;;11.20;94.90;;;;;;5018319;28;20140;-63
2021/11/29 12:04:41;;;;;;;9.57;7.78;;;11.20;95.00;;;;;;5012086;28;20033;-62
2021/11/29 12:07:08;;;;;;;9.60;7.90;;;11.30;95.10;;;;;;5017495;28;20608;-63
2021/11/29 12:09:35;;;;;;;13.13;8.45;;;11.30;95.10;;;;;;5020344;28;20049;-62
2021/11/29 12:12:04;;;;;;;12.23;8.18;;;11.30;95.00;;;;;;5022503;28;20488;-62
2021/11/29 12:14:33;;;;;;;14.13;9.18;;;11.40;95.00;;;;;;5022899;28;20108;-61
2021/11/29 12:17:10;;;;;;;15.02;9.75;;;11.30;95.00;;;;;;5023938;28;20119;-61
2021/11/29 12:19:43;;;;;;;13.63;9.02;;;11.30;95.10;;;;;;5015160;28;20500;-64
2021/11/29 12:22:21;;;;;;;13.00;9.15;;;11.30;95.20;;;;;;5031263;28;20033;-61
2021/11/29 12:24:57;;;;;;;9.57;8.02;;;11.40;95.20;;;;;;5025285;28;20071;-61
2021/11/29 12:27:39;;;;;;;31.88;10.55;;;11.40;95.30;;;;;;5028167;28;20025;-61
2021/11/29 12:30:05;;;;;;;10.18;8.63;;;11.40;95.10;;;;;;5028334;28;20038;-60
2021/11/29 12:32:31;;;;;;;12.30;9.05;;;11.40;95.10;;;;;;5025914;28;20033;-63
2021/11/29 12:35:02;;;;;;;9.43;8.27;;;11.40;95.30;;;;;;5026488;28;20028;-64
2021/11/29 12:37:40;;;;;;;9.80;7.85;;;11.40;95.40;;;;;;5027655;28;20535;-64